CW9803 Weather Reports


Display with metric or nautical units.
time (UTC)temp
F
wind
direction
speed
MPH
gust
MPH
rain 1hr
in
rain 24hr
in
rain mn
in
humidity
%
barometer
mb
20201020141028 46 0.0 0.0 0.00 0.00 0.00 76 1020.4
20201020140022 46 0.0 0.0 0.00 0.00 0.00 75 1020.4
20201020135021 46 0.0 0.0 0.00 0.00 0.00 75 1020.6
20201020134020 46 0.0 0.0 0.00 0.00 0.00 76 1020.5
20201020133028 46 0.0 0.0 0.00 0.00 0.00 76 1020.5
20201020132029 46 0.0 0.0 0.00 0.00 0.00 76 1020.5
20201020131022 46 0.0 3.0 0.00 0.00 0.00 77 1020.5
20201020130021 46 0.0 0.0 0.00 0.00 0.00 77 1020.5
20201020125015 46 0.0 0.0 0.00 0.00 0.00 77 1020.7
20201020124016 46 0.0 0.0 0.00 0.00 0.00 78 1020.7
20201020123028 46 0.0 0.0 0.00 0.00 0.00 78 1020.6
20201020122021 47 0.0 0.0 0.00 0.00 0.00 77 1020.6
20201020121017 47 0.0 0.0 0.00 0.00 0.00 77 1020.8
20201020120026 47 248 1.0 6.0 0.00 0.00 0.00 77 1020.8
20201020115016 46 248 1.0 5.0 0.00 0.00 0.00 77 1020.9
20201020114015 47 293 1.0 6.0 0.00 0.00 0.00 77 1021.0
20201020113022 47 293 1.0 6.0 0.00 0.00 0.00 77 1020.9
20201020112015 47 293 2.0 7.0 0.00 0.00 0.00 76 1021.0
20201020111016 48 0.0 3.0 0.00 0.00 0.00 74 1021.2
20201020110025 48 0.0 5.0 0.00 0.00 0.00 72 1021.3
20201020105019 48 293 2.0 7.0 0.00 0.00 0.00 70 1021.2
20201020104038 49 293 2.0 8.0 0.00 0.00 0.00 69 1021.0
20201020103024 49 270 5.0 10.0 0.00 0.00 0.00 68 1021.1
20201020102015 49 270 3.0 8.0 0.00 0.00 0.00 68 1021.1
20201020101015 49 270 4.0 11.0 0.00 0.00 0.00 68 1020.9
20201020100024 49 270 5.0 12.0 0.00 0.00 0.00 67 1021.0
20201020095016 49 270 5.0 10.0 0.00 0.00 0.00 66 1020.9
20201020094015 50 270 4.0 11.0 0.00 0.00 0.00 66 1020.8
20201020093018 50 270 5.0 9.0 0.00 0.00 0.00 66 1020.9
20201020092018 50 270 4.0 12.0 0.00 0.00 0.00 65 1020.9
20201020091015 50 293 3.0 10.0 0.00 0.00 0.00 65 1020.6
20201020090032 51 270 2.0 9.0 0.00 0.00 0.00 64 1020.8
20201020085022 51 315 1.0 8.0 0.00 0.00 0.00 63 1020.8
20201020084019 51 270 5.0 10.0 0.00 0.00 0.00 64 1021.0
20201020083022 51 293 3.0 10.0 0.00 0.00 0.00 65 1020.8
20201020082021 51 270 1.0 8.0 0.00 0.00 0.00 66 1020.6
20201020081016 51 270 1.0 6.0 0.00 0.00 0.00 66 1020.4
20201020080036 52 270 3.0 9.0 0.00 0.00 0.00 66 1020.3
20201020075020 52 293 2.0 7.0 0.00 0.00 0.00 64 1020.2
20201020074015 53 338 1.0 7.0 0.00 0.00 0.00 62 1020.0
20201020073019 53 23 1.0 7.0 0.00 0.00 0.00 61 1019.9
20201020072019 53 225 1.0 5.0 0.00 0.00 0.00 61 1019.7
20201020071025 53 293 1.0 8.0 0.00 0.00 0.00 60 1019.4
20201020070026 53 270 1.0 8.0 0.00 0.00 0.00 60 1019.2
20201020065018 53 270 1.0 8.0 0.00 0.00 0.00 60 1019.2
20201020064020 53 0.0 1.0 0.00 0.00 0.00 59 1018.9
20201020063024 54 0.0 0.0 0.00 0.00 0.00 59 1018.8
20201020062016 54 293 1.0 5.0 0.00 0.00 0.00 58 1018.7
20201020061017 54 270 2.0 12.0 0.00 0.00 0.00 58 1018.7
20201020060025 54 270 2.0 6.0 0.00 0.00 0.00 57 1018.6
20201020055021 54 293 2.0 11.0 0.00 0.00 0.00 57 1018.5
20201020054021 54 270 1.0 5.0 0.00 0.00 0.00 56 1018.4
20201020053033 54 248 1.0 5.0 0.00 0.00 0.00 56 1018.3
20201020052019 55 180 4.0 15.0 0.00 0.00 0.00 56 1018.1
20201020051024 55 270 5.0 13.0 0.00 0.00 0.00 56 1018.3
20201020050023 55 270 5.0 16.0 0.00 0.00 0.00 56 1018.4
20201020045028 55 270 3.0 10.0 0.00 0.00 0.00 57 1018.1
20201020044019 55 225 1.0 7.0 0.00 0.00 0.00 57 1018.3
20201020043025 55 0.0 5.0 0.00 0.00 0.00 57 1018.2
20201020042021 55 0.0 3.0 0.00 0.00 0.00 58 1017.8
20201020041019 55 203 1.0 7.0 0.00 0.00 0.00 57 1017.8
20201020040024 55 203 1.0 7.0 0.00 0.00 0.00 56 1017.6
20201020035016 55 248 2.0 8.0 0.00 0.00 0.00 56 1017.4
20201020034016 55 248 1.0 6.0 0.00 0.00 0.00 56 1017.1
20201020033026 55 270 2.0 7.0 0.00 0.00 0.00 56 1017.0
20201020032017 55 270 1.0 4.0 0.00 0.00 0.00 57 1017.0
20201020031018 55 0.0 2.0 0.00 0.00 0.00 58 1016.7
20201020030028 55 0.0 3.0 0.00 0.00 0.00 58 1016.7
20201020025017 55 0.0 3.0 0.00 0.00 0.00 57 1016.7
20201020024020 55 270 1.0 5.0 0.00 0.00 0.00 56 1016.6
20201020023029 55 270 1.0 5.0 0.00 0.00 0.00 56 1017.0
20201020022020 56 270 2.0 8.0 0.00 0.00 0.00 56 1016.7
20201020021021 56 293 1.0 8.0 0.00 0.00 0.00 55 1016.7
20201020020020 57 293 1.0 8.0 0.00 0.00 0.00 54 1016.6
20201020015024 58 293 4.0 9.0 0.00 0.00 0.00 53 1016.9
20201020014017 59 270 2.0 8.0 0.00 0.00 0.00 50 1016.7
20201020013020 59 248 2.0 7.0 0.00 0.00 0.00 49 1016.4
20201020012021 59 270 8.0 16.0 0.00 0.00 0.00 48 1016.7
20201020011034 59 293 4.0 13.0 0.00 0.00 0.00 48 1016.5
20201020010025 60 270 1.0 6.0 0.00 0.00 0.00 48 1016.3
20201020005019 60 0.0 2.0 0.00 0.00 0.00 47 1016.2
20201020004023 61 270 1.0 7.0 0.00 0.00 0.00 44 1016.5
20201020003022 61 225 2.0 9.0 0.00 0.00 0.00 44 1016.5
20201020002024 61 270 5.0 11.0 0.00 0.00 0.00 43 1016.8
20201020001026 62 270 4.0 12.0 0.00 0.00 0.00 42 1016.9
20201020000035 62 248 3.0 10.0 0.00 0.00 0.00 41 1016.7
20201019235019 63 248 1.0 8.0 0.00 0.00 0.00 41 1016.8
20201019234017 63 248 3.0 11.0 0.00 0.00 0.00 40 1016.7
20201019233020 64 270 3.0 9.0 0.00 0.00 0.00 39 1017.1
20201019232018 64 270 6.0 18.0 0.00 0.00 0.00 38 1017.0
20201019231020 64 270 2.0 7.0 0.00 0.00 0.00 38 1016.8
20201019230025 64 270 2.0 10.0 0.00 0.00 0.00 37 1017.0
20201019225022 64 248 2.0 7.0 0.00 0.00 0.00 38 1016.8
20201019224025 63 270 3.0 10.0 0.00 0.00 0.00 39 1016.6
20201019223025 63 248 2.0 9.0 0.00 0.00 0.00 39 1017.1
20201019222030 63 248 4.0 12.0 0.00 0.00 0.00 39 1017.3
20201019221017 63 270 3.0 13.0 0.00 0.00 0.00 38 1017.3
20201019220021 63 248 4.0 14.0 0.00 0.00 0.00 39 1017.0
20201019215020 63 270 4.0 9.0 0.00 0.00 0.00 39 1017.4
20201019214023 63 248 3.0 11.0 0.00 0.00 0.00 39 1017.4
20201019213020 63 248 6.0 15.0 0.00 0.00 0.00 38 1017.6
20201019212022 64 270 6.0 14.0 0.00 0.00 0.00 38 1017.9
20201019211019 63 270 4.0 10.0 0.00 0.00 0.00 38 1017.8
20201019210022 63 270 7.0 15.0 0.00 0.00 0.00 38 1017.8
20201019205016 65 270 7.0 14.0 0.00 0.00 0.00 37 1017.9
20201019204026 65 270 4.0 12.0 0.00 0.00 0.00 36 1018.3
20201019203023 64 248 5.0 14.0 0.00 0.00 0.00 36 1018.5
20201019202020 64 270 6.0 15.0 0.00 0.00 0.00 38 1018.5
20201019201017 63 248 5.0 12.0 0.00 0.00 0.00 38 1018.5
20201019200031 62 270 5.0 13.0 0.00 0.00 0.00 40 1018.5
20201019195017 62 270 6.0 15.0 0.00 0.00 0.00 40 1018.3
20201019194016 62 270 4.0 14.0 0.00 0.00 0.00 42 1019.0
20201019193021 61 270 5.0 11.0 0.00 0.00 0.00 43 1019.0
20201019192028 61 270 5.0 13.0 0.00 0.00 0.00 43 1019.0
20201019191016 60 270 5.0 12.0 0.00 0.00 0.00 45 1019.0
20201019190016 59 225 3.0 12.0 0.00 0.00 0.00 46 1019.0
20201019185022 59 248 5.0 10.0 0.00 0.00 0.00 45 1019.3
20201019184027 58 270 6.0 11.0 0.00 0.00 0.00 46 1019.2
20201019183022 58 270 5.0 13.0 0.00 0.00 0.00 48 1019.1
20201019182022 57 270 3.0 10.0 0.00 0.00 0.00 48 1019.2
20201019181018 57 270 4.0 9.0 0.00 0.00 0.00 49 1019.1
20201019180023 57 180 3.0 10.0 0.00 0.00 0.00 48 1019.2
20201019175017 57 225 3.0 9.0 0.00 0.00 0.00 49 1019.5
20201019174025 57 248 3.0 11.0 0.00 0.00 0.00 48 1019.7
20201019173018 57 248 1.0 8.0 0.00 0.00 0.00 50 1019.7
20201019172022 58 248 3.0 22.0 0.00 0.00 0.00 51 1019.8
20201019171017 57 248 3.0 9.0 0.00 0.00 0.00 51 1019.7
20201019170020 57 270 1.0 10.0 0.00 0.00 0.00 51 1019.8
20201019165023 58 270 3.0 11.0 0.00 0.00 0.00 50 1019.8
20201019164018 59 180 3.0 10.0 0.00 0.00 0.00 50 1019.9
20201019163019 59 225 2.0 7.0 0.00 0.00 0.00 51 1019.8
20201019162015 59 180 1.0 5.0 0.00 0.00 0.00 50 1019.8
20201019161021 59 203 1.0 7.0 0.00 0.00 0.00 50 1019.7
20201019160036 58 248 3.0 8.0 0.00 0.00 0.00 53 1019.6
20201019155019 57 203 2.0 10.0 0.00 0.00 0.00 53 1019.7
20201019154016 55 180 1.0 6.0 0.00 0.00 0.00 57 1019.5
20201019153019 54 0.0 4.0 0.00 0.00 0.00 59 1019.4
20201019152017 54 0.0 0.0 0.00 0.00 0.00 59 1019.3
20201019151015 54 0.0 4.0 0.00 0.00 0.00 59 1019.2
20201019150023 54 270 2.0 8.0 0.00 0.00 0.00 58 1019.0
20201019145030 53 225 1.0 7.0 0.00 0.00 0.00 60 1018.8
20201019144022 53 0.0 4.0 0.00 0.00 0.00 60 1018.6
20201019143020 53 0.0 5.0 0.00 0.00 0.00 59 1018.5
20201019142020 53 0.0 2.0 0.00 0.00 0.00 59 1018.4